createdAt,value
2019-01-26T00:02:05.858Z,117.63
2019-01-26T00:04:40.387Z,124.13
2019-01-26T00:07:11.885Z,112.50
2019-01-26T00:09:44.690Z,111.03
2019-01-26T00:12:18.593Z,104.77
2019-01-26T00:14:50.210Z,109.93
2019-01-26T00:17:25.434Z,111.57
2019-01-26T00:19:57.852Z,111.47
2019-01-26T00:22:28.615Z,116.47
2019-01-26T00:25:00.389Z,112.33
2019-01-26T00:27:32.163Z,116.27
2019-01-26T00:30:08.595Z,113.23
2019-01-26T00:32:41.257Z,130.00
2019-01-26T00:35:12.666Z,110.87
2019-01-26T00:37:43.886Z,110.07
2019-01-26T00:40:18.108Z,114.17
2019-01-26T00:42:52.587Z,112.53
2019-01-26T00:45:24.605Z,108.87
2019-01-26T00:47:59.812Z,113.73
2019-01-26T00:50:33.070Z,101.73
2019-01-26T00:53:07.461Z,126.67
2019-01-26T00:55:40.460Z,116.40
2019-01-26T00:58:11.622Z,113.67
2019-01-26T01:00:44.400Z,123.53
2019-01-26T01:03:20.132Z,116.87
2019-01-26T01:05:52.051Z,119.13
2019-01-26T01:08:25.433Z,124.43
2019-01-26T01:10:57.662Z,119.83
2019-01-26T01:13:29.034Z,114.13
2019-01-26T01:16:02.723Z,108.13
2019-01-26T01:18:33.595Z,111.23
2019-01-26T01:21:06.746Z,122.87
2019-01-26T01:23:40.539Z,117.03
2019-01-26T01:26:14.508Z,120.13
2019-01-26T01:28:50.276Z,113.17
2019-01-26T01:31:56.455Z,129.60
2019-01-26T01:34:29.134Z,126.63
2019-01-26T01:37:01.361Z,127.13
2019-01-26T01:39:32.625Z,114.07
2019-01-26T01:42:06.962Z,149.63
2019-01-26T01:44:41.374Z,138.97
2019-01-26T01:47:16.104Z,132.00
2019-01-26T01:49:49.342Z,130.23
2019-01-26T01:52:21.426Z,155.93
2019-01-26T01:54:53.403Z,138.10
2019-01-26T01:57:27.344Z,165.53
2019-01-26T01:59:58.774Z,129.67
2019-01-26T02:02:29.954Z,135.07
2019-01-26T02:05:02.778Z,152.23
2019-01-26T02:07:35.033Z,127.07
2019-01-26T02:10:08.565Z,128.67
2019-01-26T02:12:58.308Z,133.53
2019-01-26T02:15:29.538Z,135.23
2019-01-26T02:18:01.512Z,134.63
2019-01-26T02:20:32.889Z,139.70
2019-01-26T02:23:05.947Z,121.47
2019-01-26T02:25:38.131Z,144.40
2019-01-26T02:28:10.988Z,146.60
2019-01-26T02:30:43.033Z,139.10
2019-01-26T02:33:14.032Z,151.73
2019-01-26T02:35:47.506Z,140.67
2019-01-26T02:38:19.092Z,161.90
2019-01-26T02:40:52.432Z,156.97
2019-01-26T02:43:26.945Z,122.53
2019-01-26T02:45:57.504Z,155.97
2019-01-26T02:48:30.476Z,132.50
2019-01-26T02:51:02.029Z,128.53
2019-01-26T02:53:38.236Z,167.87
2019-01-26T02:56:09.418Z,133.80
2019-01-26T02:58:43.083Z,123.57
2019-01-26T03:01:18.009Z,129.53
2019-01-26T03:03:51.819Z,153.90
2019-01-26T03:06:27.052Z,147.97
2019-01-26T03:09:00.530Z,130.37
2019-01-26T03:11:34.115Z,133.37
2019-01-26T03:14:09.193Z,134.23
2019-01-26T03:16:44.226Z,165.97
2019-01-26T03:19:23.087Z,138.90
2019-01-26T03:21:56.672Z,156.77
2019-01-26T03:24:28.569Z,159.20
2019-01-26T03:27:02.466Z,141.80
2019-01-26T03:29:36.668Z,160.60
2019-01-26T03:32:09.049Z,162.70
2019-01-26T03:34:43.929Z,130.53
2019-01-26T03:37:15.948Z,128.13
2019-01-26T03:39:47.425Z,137.30
2019-01-26T03:42:19.809Z,123.00
2019-01-26T03:44:54.920Z,189.83
2019-01-26T03:47:28.828Z,144.23
2019-01-26T03:50:03.512Z,132.03
2019-01-26T03:52:35.441Z,133.17
2019-01-26T03:55:11.287Z,115.43
2019-01-26T03:57:42.045Z,134.03
2019-01-26T04:00:15.655Z,131.00
2019-01-26T04:02:49.355Z,131.70
2019-01-26T04:05:23.567Z,155.77
2019-01-26T04:07:55.078Z,132.83
2019-01-26T04:10:28.289Z,145.90
2019-01-26T04:13:01.048Z,149.57
2019-01-26T04:15:34.181Z,149.80
2019-01-26T04:18:05.238Z,129.23
2019-01-26T04:20:36.138Z,154.37
2019-01-26T04:23:09.420Z,85.80
2019-01-26T04:25:45.221Z,118.27
2019-01-26T04:28:18.833Z,146.40
2019-01-26T04:30:51.309Z,108.53
2019-01-26T04:33:24.125Z,123.70
2019-01-26T04:35:57.224Z,135.73
2019-01-26T04:38:29.004Z,128.17
2019-01-26T04:41:01.897Z,132.30
2019-01-26T04:44:04.355Z,113.23
2019-01-26T04:46:37.796Z,129.23
2019-01-26T04:49:08.297Z,123.07
2019-01-26T04:51:42.956Z,120.93
2019-01-26T04:54:14.951Z,132.07
2019-01-26T04:56:48.021Z,122.07
2019-01-26T04:59:20.521Z,128.97
2019-01-26T05:01:53.922Z,137.73
2019-01-26T05:04:27.604Z,111.53
2019-01-26T05:07:01.394Z,105.37
2019-01-26T05:09:34.324Z,83.60
2019-01-26T05:12:08.905Z,98.67
2019-01-26T05:14:42.038Z,108.77
2019-01-26T05:17:16.005Z,104.17
2019-01-26T05:19:52.229Z,121.83
2019-01-26T05:22:25.941Z,91.47
2019-01-26T05:24:58.748Z,97.53
2019-01-26T05:27:32.409Z,90.37
2019-01-26T05:30:28.010Z,79.87
2019-01-26T05:32:59.994Z,65.60
2019-01-26T05:35:31.259Z,75.33
2019-01-26T05:38:04.432Z,79.32
2019-01-26T05:40:38.350Z,115.40
2019-01-26T05:43:10.601Z,107.17
2019-01-26T05:48:44.088Z,73.97
2019-01-26T05:51:50.807Z,86.90
2019-01-26T05:54:26.412Z,90.07
2019-01-26T05:57:01.314Z,73.87
2019-01-26T05:59:33.985Z,71.90
2019-01-26T06:02:07.480Z,64.73
2019-01-26T06:04:41.225Z,63.13
2019-01-26T06:07:14.667Z,70.93
2019-01-26T06:09:46.377Z,56.67
2019-01-26T06:12:19.259Z,56.57
2019-01-26T06:14:53.441Z,54.10
2019-01-26T06:17:27.579Z,44.43
2019-01-26T06:19:59.591Z,45.53
2019-01-26T06:22:35.371Z,37.17
2019-01-26T06:25:11.462Z,57.33
2019-01-26T06:27:46.683Z,51.27
2019-01-26T06:30:23.154Z,47.33
2019-01-26T06:33:02.551Z,42.60
2019-01-26T06:35:36.363Z,49.90
2019-01-26T06:38:10.144Z,49.30
2019-01-26T06:40:42.573Z,59.00
2019-01-26T06:43:14.891Z,48.73
2019-01-26T06:45:47.539Z,50.57
2019-01-26T06:48:28.593Z,38.00
2019-01-26T06:54:22.229Z,48.17
2019-01-26T06:56:55.596Z,40.03
2019-01-26T06:59:27.271Z,49.03
2019-01-26T07:02:00.419Z,47.37
2019-01-26T07:04:46.803Z,33.33
2019-01-26T07:07:19.110Z,32.27
2019-01-26T07:09:55.681Z,43.50
2019-01-26T07:12:29.584Z,35.30
2019-01-26T07:15:04.132Z,25.90
2019-01-26T07:17:36.825Z,25.20
2019-01-26T07:20:15.735Z,29.93
2019-01-26T07:22:47.267Z,24.10
2019-01-26T07:25:30.418Z,36.47
2019-01-26T07:28:04.644Z,29.23
2019-01-26T07:30:36.166Z,33.07
2019-01-26T07:33:07.899Z,26.87
2019-01-26T07:35:50.148Z,24.87
2019-01-26T07:38:23.938Z,37.13
2019-01-26T07:40:56.238Z,34.00
2019-01-26T07:43:30.900Z,26.20
2019-01-26T07:46:04.021Z,31.07
2019-01-26T07:48:35.994Z,35.73
2019-01-26T07:51:07.282Z,35.43
2019-01-26T07:53:40.471Z,25.33
2019-01-26T07:56:13.138Z,42.90
2019-01-26T07:58:48.841Z,28.73
2019-01-26T08:01:20.633Z,31.10
2019-01-26T08:03:51.743Z,39.50
2019-01-26T08:06:23.466Z,34.90
2019-01-26T08:08:54.022Z,43.07
2019-01-26T08:11:26.492Z,20.47
2019-01-26T08:13:59.669Z,35.93
2019-01-26T08:16:37.575Z,26.40
2019-01-26T08:19:09.226Z,27.73
2019-01-26T08:21:41.018Z,35.37
2019-01-26T08:24:14.348Z,21.17
2019-01-26T08:26:52.292Z,37.20
2019-01-26T08:29:28.061Z,25.03
2019-01-26T08:32:14.281Z,21.93
2019-01-26T08:34:46.150Z,34.43
2019-01-26T08:37:19.259Z,27.50
2019-01-26T08:39:53.854Z,37.40
2019-01-26T08:42:27.563Z,26.27
2019-01-26T08:45:00.634Z,38.63
2019-01-26T08:47:31.007Z,23.87
2019-01-26T08:50:02.087Z,26.77
2019-01-26T08:52:33.593Z,22.53
2019-01-26T08:55:04.655Z,36.37
2019-01-26T08:57:35.739Z,17.00
2019-01-26T09:00:13.704Z,28.70
2019-01-26T09:02:49.101Z,28.47
2019-01-26T09:05:21.128Z,26.20
2019-01-26T09:07:52.355Z,24.87
2019-01-26T09:10:25.452Z,18.87
2019-01-26T09:12:56.449Z,39.23
2019-01-26T09:15:27.278Z,23.93
2019-01-26T09:17:59.140Z,29.07
2019-01-26T09:20:29.654Z,22.43
2019-01-26T09:23:03.305Z,24.57
2019-01-26T09:25:33.666Z,30.77
2019-01-26T09:28:04.707Z,21.50
2019-01-26T09:30:36.609Z,27.20
2019-01-26T09:33:07.051Z,18.23
2019-01-26T09:35:47.837Z,30.87
2019-01-26T09:38:20.882Z,26.93
2019-01-26T09:40:55.209Z,26.83
2019-01-26T09:43:28.996Z,18.10
2019-01-26T09:46:01.475Z,18.47
2019-01-26T09:48:31.607Z,20.90
2019-01-26T09:51:02.109Z,16.17
2019-01-26T09:53:51.700Z,27.23
2019-01-26T09:56:25.111Z,19.70
2019-01-26T09:58:58.360Z,31.20
2019-01-26T10:01:31.979Z,21.83
2019-01-26T10:04:03.724Z,20.10
2019-01-26T10:06:35.690Z,20.93
2019-01-26T10:09:09.686Z,18.10
2019-01-26T10:11:56.642Z,18.40
2019-01-26T10:17:34.306Z,16.63
2019-01-26T10:20:09.178Z,15.90
2019-01-26T10:22:41.759Z,20.60
2019-01-26T10:25:18.123Z,20.17
2019-01-26T10:27:50.579Z,12.77
2019-01-26T10:30:30.901Z,16.80
2019-01-26T10:33:02.081Z,13.27
2019-01-26T10:35:49.101Z,19.97
2019-01-26T10:38:23.520Z,15.17
2019-01-26T10:40:59.601Z,15.70
2019-01-26T10:43:38.254Z,12.70
2019-01-26T10:46:10.302Z,13.73
2019-01-26T10:48:40.657Z,15.73
2019-01-26T10:51:12.619Z,17.10
2019-01-26T10:53:45.686Z,16.53
2019-01-26T10:56:18.907Z,20.50
2019-01-26T10:58:50.567Z,21.37
2019-01-26T11:01:26.238Z,13.83
2019-01-26T11:04:02.532Z,8.57
2019-01-26T11:06:35.800Z,16.60
2019-01-26T11:09:09.377Z,15.13
2019-01-26T11:11:45.487Z,14.80
2019-01-26T11:14:18.417Z,15.47
2019-01-26T11:16:50.240Z,17.07
2019-01-26T11:19:22.072Z,16.67
2019-01-26T11:21:53.370Z,14.33
2019-01-26T11:24:29.922Z,10.47
2019-01-26T11:27:00.561Z,12.67
2019-01-26T11:29:31.503Z,12.93
2019-01-26T11:32:03.760Z,12.63
2019-01-26T11:34:38.744Z,16.43
2019-01-26T11:37:10.700Z,10.30
2019-01-26T11:39:45.700Z,11.10
2019-01-26T11:42:28.115Z,15.90
2019-01-26T11:45:06.485Z,11.70
2019-01-26T11:47:39.950Z,13.43
2019-01-26T11:50:16.294Z,9.33
2019-01-26T11:52:46.809Z,12.87
2019-01-26T11:55:32.174Z,16.20
2019-01-26T11:58:04.993Z,12.80
2019-01-26T12:00:59.494Z,14.57
2019-01-26T12:03:31.962Z,11.57
2019-01-26T12:06:09.952Z,11.63
2019-01-26T12:08:43.495Z,8.47
2019-01-26T12:11:25.491Z,11.60
2019-01-26T12:14:00.557Z,13.53
2019-01-26T12:16:33.511Z,15.73
2019-01-26T12:19:06.020Z,17.03
2019-01-26T12:21:38.654Z,16.67
2019-01-26T12:24:13.421Z,16.53
2019-01-26T12:26:44.200Z,13.63
2019-01-26T12:29:15.467Z,12.03
2019-01-26T12:31:58.201Z,13.73
2019-01-26T12:34:29.559Z,12.47
2019-01-26T12:37:02.382Z,15.30
2019-01-26T12:39:37.733Z,14.70
2019-01-26T12:42:34.223Z,13.83
2019-01-26T12:45:10.060Z,15.77
2019-01-26T12:47:43.093Z,16.03
2019-01-26T12:50:14.672Z,14.43
2019-01-26T12:52:47.450Z,13.80
2019-01-26T12:55:20.071Z,12.10
2019-01-26T12:57:53.372Z,13.47
2019-01-26T13:00:28.307Z,15.00
2019-01-26T13:03:01.176Z,18.20
2019-01-26T13:05:32.850Z,10.97
2019-01-26T13:08:05.693Z,13.73
2019-01-26T13:10:43.447Z,11.93
2019-01-26T13:13:20.062Z,14.57
2019-01-26T13:15:51.120Z,8.90
2019-01-26T13:18:25.683Z,13.77
2019-01-26T13:20:57.631Z,12.00
2019-01-26T13:23:31.821Z,9.77
2019-01-26T13:26:06.655Z,9.30
2019-01-26T13:28:38.896Z,15.17
2019-01-26T13:31:10.156Z,6.73
2019-01-26T13:33:45.353Z,10.33
2019-01-26T13:36:17.035Z,9.13
2019-01-26T13:38:52.367Z,13.23
2019-01-26T13:41:26.637Z,9.47
2019-01-26T13:43:58.115Z,12.60
2019-01-26T13:46:30.296Z,10.63
2019-01-26T13:49:03.768Z,10.07
2019-01-26T13:51:37.577Z,10.13
2019-01-26T13:54:10.482Z,10.97
2019-01-26T13:56:44.064Z,12.07
2019-01-26T13:59:20.290Z,7.23
2019-01-26T14:02:06.527Z,9.93
2019-01-26T14:04:38.821Z,10.93
2019-01-26T14:07:11.362Z,11.83
2019-01-26T14:09:43.111Z,15.73
2019-01-26T14:12:14.236Z,11.90
2019-01-26T14:14:48.667Z,18.27
2019-01-26T14:17:21.566Z,16.40
2019-01-26T14:19:55.506Z,10.40
2019-01-26T14:22:28.773Z,16.27
2019-01-26T14:24:59.345Z,16.00
2019-01-26T14:27:32.349Z,13.33
2019-01-26T14:30:09.447Z,18.37
2019-01-26T14:32:40.281Z,18.03
2019-01-26T14:35:12.386Z,14.43
2019-01-26T14:37:43.621Z,17.47
2019-01-26T14:40:20.172Z,15.13
2019-01-26T14:42:54.338Z,14.53
2019-01-26T14:45:29.403Z,14.20
2019-01-26T14:48:03.961Z,18.30
2019-01-26T14:50:36.543Z,13.93
2019-01-26T14:53:10.967Z,14.67
2019-01-26T14:55:42.523Z,16.07
2019-01-26T14:58:13.954Z,18.03
2019-01-26T15:00:46.587Z,14.90
2019-01-26T15:03:20.198Z,17.97
2019-01-26T15:05:53.841Z,15.87
2019-01-26T15:08:31.810Z,12.90
2019-01-26T15:11:06.729Z,18.17
2019-01-26T15:13:39.602Z,20.70
2019-01-26T15:16:23.701Z,16.07
2019-01-26T15:18:55.430Z,18.10
2019-01-26T15:21:37.392Z,18.00
2019-01-26T15:24:11.470Z,25.03
2019-01-26T15:26:44.861Z,23.43
2019-01-26T15:29:18.112Z,32.37
2019-01-26T15:31:52.733Z,26.33
2019-01-26T15:34:24.643Z,25.40
2019-01-26T15:36:58.438Z,30.80
2019-01-26T15:39:35.906Z,29.00
2019-01-26T15:42:09.718Z,29.27
2019-01-26T15:44:43.614Z,26.20
2019-01-26T15:47:22.457Z,26.43
2019-01-26T15:50:05.570Z,31.13
2019-01-26T15:52:36.300Z,26.87
2019-01-26T15:55:13.575Z,24.60
2019-01-26T15:57:44.539Z,24.97
2019-01-26T16:00:27.468Z,23.00
2019-01-26T16:02:59.660Z,21.63
2019-01-26T16:05:31.566Z,25.17
2019-01-26T16:08:05.272Z,22.13
2019-01-26T16:10:58.177Z,25.07
2019-01-26T16:13:34.934Z,24.07
2019-01-26T16:16:08.354Z,21.50
2019-01-26T16:18:44.700Z,26.57
2019-01-26T16:21:17.147Z,23.10
2019-01-26T16:23:48.848Z,19.97
2019-01-26T16:26:23.069Z,24.10
2019-01-26T16:28:53.520Z,21.10
2019-01-26T16:31:25.848Z,21.30
2019-01-26T16:33:57.107Z,30.97
2019-01-26T16:36:30.138Z,26.27
2019-01-26T16:39:01.742Z,30.97
2019-01-26T16:41:32.740Z,28.40
2019-01-26T16:44:06.270Z,31.63
2019-01-26T16:46:38.798Z,37.20
2019-01-26T16:49:11.379Z,27.97
2019-01-26T16:51:43.214Z,29.60
2019-01-26T16:54:15.541Z,33.30
2019-01-26T16:56:45.884Z,34.73
2019-01-26T16:59:16.327Z,32.93
2019-01-26T17:01:47.512Z,39.43
2019-01-26T17:04:21.621Z,33.40
2019-01-26T17:06:53.600Z,40.27
2019-01-26T17:09:25.531Z,41.57
2019-01-26T17:11:57.254Z,45.17
2019-01-26T17:14:30.154Z,48.77
2019-01-26T17:17:02.686Z,39.50
2019-01-26T17:19:34.705Z,36.83
2019-01-26T17:22:05.792Z,43.83
2019-01-26T17:24:36.211Z,41.90
2019-01-26T17:27:08.843Z,57.67
2019-01-26T17:29:39.932Z,35.57
2019-01-26T17:32:11.941Z,52.87
2019-01-26T17:34:44.565Z,34.17
2019-01-26T17:37:16.643Z,32.27
2019-01-26T17:39:48.495Z,31.43
2019-01-26T17:42:22.951Z,25.27
2019-01-26T17:44:55.021Z,27.83
2019-01-26T17:47:27.074Z,27.57
2019-01-26T17:49:59.865Z,33.13
2019-01-26T17:52:33.038Z,27.47
2019-01-26T17:55:09.863Z,29.13
2019-01-26T17:57:41.791Z,29.53
2019-01-26T18:00:22.755Z,25.70
2019-01-26T18:02:56.140Z,26.80
2019-01-26T18:05:27.020Z,28.70
2019-01-26T18:08:02.668Z,23.43
2019-01-26T18:10:33.192Z,28.73
2019-01-26T18:13:04.022Z,32.47
2019-01-26T18:15:35.366Z,29.13
2019-01-26T18:18:07.953Z,27.60
2019-01-26T18:20:39.511Z,25.57
2019-01-26T18:23:11.939Z,25.47
2019-01-26T18:25:55.998Z,25.90
2019-01-26T18:31:48.762Z,22.00
2019-01-26T18:34:24.778Z,22.47
2019-01-26T18:37:09.908Z,23.37
2019-01-26T18:39:45.400Z,26.37
2019-01-26T18:42:45.792Z,25.87
2019-01-26T18:45:29.289Z,24.43
2019-01-26T18:48:02.503Z,23.27
2019-01-26T18:50:42.036Z,21.03
2019-01-26T18:53:16.397Z,19.67
2019-01-26T18:55:53.115Z,47.37
2019-01-26T18:58:25.258Z,19.13
2019-01-26T19:00:56.817Z,18.67
2019-01-26T19:03:37.936Z,17.10
2019-01-26T19:06:09.345Z,16.40
2019-01-26T19:08:42.071Z,17.73
2019-01-26T19:11:13.660Z,17.83
2019-01-26T19:13:46.278Z,16.83
2019-01-26T19:16:19.589Z,18.20
2019-01-26T19:18:50.732Z,17.40
2019-01-26T19:21:21.853Z,19.03
2019-01-26T19:23:54.748Z,18.60
2019-01-26T19:26:25.969Z,17.03
2019-01-26T19:28:58.166Z,15.73
2019-01-26T19:31:30.555Z,20.60
2019-01-26T19:34:03.141Z,20.13
2019-01-26T19:36:35.974Z,18.70
2019-01-26T19:39:09.144Z,16.77
2019-01-26T19:41:43.041Z,20.53
2019-01-26T19:44:15.213Z,20.20
2019-01-26T19:46:45.292Z,21.27
2019-01-26T19:49:16.225Z,21.70
2019-01-26T19:51:52.224Z,23.33
2019-01-26T19:54:25.642Z,22.23
2019-01-26T19:56:58.189Z,22.17
2019-01-26T19:59:28.875Z,21.93
2019-01-26T20:02:00.461Z,23.20
2019-01-26T20:04:33.999Z,21.47
2019-01-26T20:07:08.699Z,26.87
2019-01-26T20:09:41.591Z,21.37
2019-01-26T20:12:13.947Z,23.30
2019-01-26T20:14:48.157Z,23.00
2019-01-26T20:17:21.113Z,75.33
2019-01-26T20:19:52.323Z,69.70
2019-01-26T20:22:25.287Z,28.43
2019-01-26T20:24:58.942Z,28.67
2019-01-26T20:27:30.088Z,30.00
2019-01-26T20:30:04.696Z,29.17
2019-01-26T20:32:37.216Z,27.90
2019-01-26T20:35:11.488Z,25.80
2019-01-26T20:37:47.925Z,26.93
2019-01-26T20:40:21.037Z,31.33
2019-01-26T20:42:56.040Z,23.20
2019-01-26T20:45:31.335Z,21.17
2019-01-26T20:48:04.996Z,21.70
2019-01-26T20:50:38.940Z,23.53
2019-01-26T20:53:14.768Z,20.77
2019-01-26T20:55:47.212Z,30.23
2019-01-26T20:58:17.863Z,49.00
2019-01-26T21:00:48.405Z,55.07
2019-01-26T21:03:19.149Z,92.23
2019-01-26T21:05:49.913Z,69.13
2019-01-26T21:08:21.724Z,31.93
2019-01-26T21:10:52.777Z,27.00
2019-01-26T21:13:25.090Z,24.70
2019-01-26T21:15:55.157Z,28.33
2019-01-26T21:18:25.804Z,26.10
2019-01-26T21:20:57.903Z,30.10
2019-01-26T21:23:28.126Z,25.77
2019-01-26T21:25:59.423Z,31.73
2019-01-26T21:28:29.998Z,26.80
2019-01-26T21:31:02.262Z,32.17
2019-01-26T21:33:35.714Z,27.47
2019-01-26T21:36:09.934Z,27.43
2019-01-26T21:38:43.965Z,23.87
2019-01-26T21:41:21.153Z,29.30
2019-01-26T21:43:54.303Z,31.30
2019-01-26T21:46:27.650Z,31.60
2019-01-26T21:48:57.986Z,35.67
2019-01-26T21:51:31.071Z,34.50
2019-01-26T21:54:03.759Z,39.57
2019-01-26T21:56:35.282Z,40.80
2019-01-26T21:59:07.767Z,42.53
2019-01-26T22:01:44.790Z,48.40
2019-01-26T22:04:14.763Z,45.27
2019-01-26T22:06:48.637Z,44.73
2019-01-26T22:09:34.129Z,43.00
2019-01-26T22:12:04.549Z,49.27
2019-01-26T22:14:36.438Z,54.33
2019-01-26T22:17:07.811Z,56.33
2019-01-26T22:19:38.182Z,50.67
2019-01-26T22:24:52.212Z,51.30
2019-01-26T22:27:24.285Z,48.90
2019-01-26T22:29:58.778Z,48.93
2019-01-26T22:32:29.781Z,55.57
2019-01-26T22:35:01.544Z,52.33
2019-01-26T22:37:32.549Z,52.13
2019-01-26T22:40:02.787Z,53.80
2019-01-26T22:42:34.848Z,58.87
2019-01-26T22:45:10.159Z,60.87
2019-01-26T22:47:40.841Z,64.80
2019-01-26T22:50:14.129Z,53.93
2019-01-26T22:52:45.237Z,56.80
2019-01-26T22:55:19.974Z,55.63
2019-01-26T22:57:50.544Z,58.67
2019-01-26T23:00:43.438Z,55.00
2019-01-26T23:03:15.323Z,65.20
2019-01-26T23:05:58.482Z,61.23
2019-01-26T23:08:38.299Z,66.77
2019-01-26T23:11:15.760Z,66.30
2019-01-26T23:13:49.800Z,65.17
2019-01-26T23:16:51.849Z,70.17
2019-01-26T23:19:27.244Z,71.10
2019-01-26T23:22:06.233Z,74.47
2019-01-26T23:24:57.858Z,76.73
2019-01-26T23:27:55.769Z,73.93
2019-01-26T23:30:35.758Z,77.17
2019-01-26T23:33:06.638Z,73.40
2019-01-26T23:35:36.801Z,76.17
2019-01-26T23:38:07.628Z,71.07
2019-01-26T23:40:39.183Z,79.03
2019-01-26T23:43:13.531Z,89.70
2019-01-26T23:45:49.495Z,85.50
2019-01-26T23:48:24.205Z,79.27
2019-01-26T23:50:55.592Z,73.53
2019-01-26T23:53:26.504Z,85.80
2019-01-26T23:55:57.885Z,86.63
2019-01-26T23:58:28.601Z,78.00
